Weather at Vnukovo International Airport

Public forecast

Using degrees Celsius for public forecast. Weather courtesy of forecast.io.

Current aviation weather report (METAR) for Vnukovo International Airport

2024/06/18 05:00 (retrieved 11 minutes ago)

UUWW 180500Z 17004MPS 9999 BKN006 BKN025 19/18 Q1007 R24/290050 NOSIG

Closest aviation forecast (TAF) to Vnukovo International Airport

Forecast is more than 12 hours old.

Closest forecast is Ämari Air Base, 474.9 nm (879.5 km) WNW.

2024/06/17 12:31 (retrieved 17 hours ago)

TAF EEEI 171130Z 1712/1812 28005KT 9999 SCT040 TEMPO 1712/1715 VRB20KT 3000 TSRA SCT020CB BKN030 PROB40 TEMPO 1722/1502 1000 BCFG BKN002